sensor_id;sensor_type;location;lat;lon;timestamp;P1;durP1;ratioP1;P2;durP2;ratioP2
49183;SDS011;35021;49.214;12.270;2023-08-21T00:00:14;5.53;;;5.07;;
49183;SDS011;35021;49.214;12.270;2023-08-21T00:02:41;5.70;;;4.93;;
49183;SDS011;35021;49.214;12.270;2023-08-21T00:05:08;5.95;;;5.45;;
49183;SDS011;35021;49.214;12.270;2023-08-21T00:07:35;5.93;;;5.43;;
49183;SDS011;35021;49.214;12.270;2023-08-21T00:10:02;6.45;;;5.53;;
49183;SDS011;35021;49.214;12.270;2023-08-21T00:12:29;6.03;;;5.43;;
49183;SDS011;35021;49.214;12.270;2023-08-21T00:14:57;5.63;;;5.15;;
49183;SDS011;35021;49.214;12.270;2023-08-21T00:17:24;6.78;;;5.53;;
49183;SDS011;35021;49.214;12.270;2023-08-21T00:19:51;5.80;;;5.30;;
49183;SDS011;35021;49.214;12.270;2023-08-21T00:22:18;6.30;;;5.70;;
49183;SDS011;35021;49.214;12.270;2023-08-21T00:24:45;5.90;;;5.40;;
49183;SDS011;35021;49.214;12.270;2023-08-21T00:27:11;5.80;;;5.15;;
49183;SDS011;35021;49.214;12.270;2023-08-21T00:29:38;5.90;;;5.40;;
49183;SDS011;35021;49.214;12.270;2023-08-21T00:32:05;6.10;;;5.60;;
49183;SDS011;35021;49.214;12.270;2023-08-21T00:34:32;6.22;;;5.63;;
49183;SDS011;35021;49.214;12.270;2023-08-21T00:36:59;6.47;;;5.88;;
49183;SDS011;35021;49.214;12.270;2023-08-21T00:39:26;5.65;;;5.15;;
49183;SDS011;35021;49.214;12.270;2023-08-21T00:41:53;5.07;;;4.68;;
49183;SDS011;35021;49.214;12.270;2023-08-21T00:44:20;5.97;;;5.38;;
49183;SDS011;35021;49.214;12.270;2023-08-21T00:46:47;6.05;;;5.50;;
49183;SDS011;35021;49.214;12.270;2023-08-21T00:49:14;7.50;;;6.18;;
49183;SDS011;35021;49.214;12.270;2023-08-21T00:51:41;6.18;;;5.57;;
49183;SDS011;35021;49.214;12.270;2023-08-21T00:54:08;5.70;;;5.20;;
49183;SDS011;35021;49.214;12.270;2023-08-21T00:56:34;5.97;;;5.25;;
49183;SDS011;35021;49.214;12.270;2023-08-21T00:59:01;5.53;;;5.03;;
49183;SDS011;35021;49.214;12.270;2023-08-21T01:01:28;6.90;;;5.25;;
49183;SDS011;35021;49.214;12.270;2023-08-21T01:03:55;5.50;;;5.10;;
49183;SDS011;35021;49.214;12.270;2023-08-21T01:06:22;5.43;;;5.03;;
49183;SDS011;35021;49.214;12.270;2023-08-21T01:08:52;5.88;;;5.32;;
49183;SDS011;35021;49.214;12.270;2023-08-21T01:14:02;5.22;;;4.82;;
49183;SDS011;35021;49.214;12.270;2023-08-21T01:16:41;5.28;;;4.85;;
49183;SDS011;35021;49.214;12.270;2023-08-21T01:19:19;5.50;;;5.00;;
49183;SDS011;35021;49.214;12.270;2023-08-21T01:21:52;5.03;;;4.63;;
49183;SDS011;35021;49.214;12.270;2023-08-21T01:24:19;5.65;;;5.18;;
49183;SDS011;35021;49.214;12.270;2023-08-21T01:26:46;5.65;;;5.15;;
49183;SDS011;35021;49.214;12.270;2023-08-21T01:29:13;5.55;;;5.05;;
49183;SDS011;35021;49.214;12.270;2023-08-21T01:31:40;5.72;;;5.22;;
49183;SDS011;35021;49.214;12.270;2023-08-21T01:34:13;5.65;;;5.15;;
49183;SDS011;35021;49.214;12.270;2023-08-21T01:36:42;5.50;;;5.07;;
49183;SDS011;35021;49.214;12.270;2023-08-21T01:39:09;5.57;;;5.07;;
49183;SDS011;35021;49.214;12.270;2023-08-21T01:41:37;6.90;;;5.45;;
49183;SDS011;35021;49.214;12.270;2023-08-21T01:44:03;5.32;;;4.82;;
49183;SDS011;35021;49.214;12.270;2023-08-21T01:46:30;5.88;;;5.38;;
49183;SDS011;35021;49.214;12.270;2023-08-21T01:48:57;6.07;;;5.30;;
49183;SDS011;35021;49.214;12.270;2023-08-21T01:51:24;5.80;;;4.97;;
49183;SDS011;35021;49.214;12.270;2023-08-21T01:53:51;5.25;;;4.82;;
49183;SDS011;35021;49.214;12.270;2023-08-21T01:56:18;5.50;;;5.00;;
49183;SDS011;35021;49.214;12.270;2023-08-21T01:58:44;6.32;;;5.65;;
49183;SDS011;35021;49.214;12.270;2023-08-21T02:01:11;6.00;;;5.50;;
49183;SDS011;35021;49.214;12.270;2023-08-21T02:03:39;5.50;;;5.00;;
49183;SDS011;35021;49.214;12.270;2023-08-21T02:06:06;6.07;;;5.50;;
49183;SDS011;35021;49.214;12.270;2023-08-21T02:08:33;6.07;;;5.50;;
49183;SDS011;35021;49.214;12.270;2023-08-21T02:11:00;5.80;;;5.20;;
49183;SDS011;35021;49.214;12.270;2023-08-21T02:13:28;6.85;;;5.38;;
49183;SDS011;35021;49.214;12.270;2023-08-21T02:15:55;5.55;;;5.05;;
49183;SDS011;35021;49.214;12.270;2023-08-21T02:18:22;5.45;;;4.95;;
49183;SDS011;35021;49.214;12.270;2023-08-21T02:20:49;6.30;;;5.13;;
49183;SDS011;35021;49.214;12.270;2023-08-21T02:23:16;7.43;;;5.35;;
49183;SDS011;35021;49.214;12.270;2023-08-21T02:25:43;6.07;;;5.47;;
49183;SDS011;35021;49.214;12.270;2023-08-21T02:28:10;5.72;;;5.22;;
49183;SDS011;35021;49.214;12.270;2023-08-21T02:30:39;6.70;;;6.05;;
49183;SDS011;35021;49.214;12.270;2023-08-21T02:33:07;5.75;;;5.25;;
49183;SDS011;35021;49.214;12.270;2023-08-21T02:35:34;6.03;;;5.53;;
49183;SDS011;35021;49.214;12.270;2023-08-21T02:38:02;5.90;;;5.40;;
49183;SDS011;35021;49.214;12.270;2023-08-21T02:40:29;5.93;;;5.43;;
49183;SDS011;35021;49.214;12.270;2023-08-21T02:42:56;5.90;;;5.00;;
49183;SDS011;35021;49.214;12.270;2023-08-21T02:45:23;5.80;;;5.30;;
49183;SDS011;35021;49.214;12.270;2023-08-21T02:47:51;5.55;;;5.05;;
49183;SDS011;35021;49.214;12.270;2023-08-21T02:50:17;6.05;;;5.55;;
49183;SDS011;35021;49.214;12.270;2023-08-21T02:52:44;6.07;;;5.35;;
49183;SDS011;35021;49.214;12.270;2023-08-21T02:55:11;5.72;;;5.18;;
49183;SDS011;35021;49.214;12.270;2023-08-21T02:57:38;6.05;;;5.45;;
49183;SDS011;35021;49.214;12.270;2023-08-21T03:00:05;6.85;;;5.63;;
49183;SDS011;35021;49.214;12.270;2023-08-21T03:02:34;5.65;;;5.15;;
49183;SDS011;35021;49.214;12.270;2023-08-21T03:05:01;5.57;;;5.07;;
49183;SDS011;35021;49.214;12.270;2023-08-21T03:07:29;8.45;;;5.72;;
49183;SDS011;35021;49.214;12.270;2023-08-21T03:09:56;6.22;;;5.38;;
49183;SDS011;35021;49.214;12.270;2023-08-21T03:12:22;5.55;;;5.05;;
49183;SDS011;35021;49.214;12.270;2023-08-21T03:14:49;6.20;;;5.60;;
49183;SDS011;35021;49.214;12.270;2023-08-21T03:17:16;5.93;;;5.35;;
49183;SDS011;35021;49.214;12.270;2023-08-21T03:19:43;7.45;;;5.90;;
49183;SDS011;35021;49.214;12.270;2023-08-21T03:22:10;5.88;;;5.38;;
49183;SDS011;35021;49.214;12.270;2023-08-21T03:24:37;5.93;;;5.32;;
49183;SDS011;35021;49.214;12.270;2023-08-21T03:27:04;5.78;;;5.30;;
49183;SDS011;35021;49.214;12.270;2023-08-21T03:29:31;5.50;;;5.00;;
49183;SDS011;35021;49.214;12.270;2023-08-21T03:31:58;5.57;;;5.00;;
49183;SDS011;35021;49.214;12.270;2023-08-21T03:34:25;6.10;;;5.43;;
49183;SDS011;35021;49.214;12.270;2023-08-21T03:36:52;6.22;;;5.65;;
49183;SDS011;35021;49.214;12.270;2023-08-21T03:39:18;5.95;;;5.45;;
49183;SDS011;35021;49.214;12.270;2023-08-21T03:41:45;6.25;;;5.65;;
49183;SDS011;35021;49.214;12.270;2023-08-21T03:44:12;6.35;;;5.60;;
49183;SDS011;35021;49.214;12.270;2023-08-21T03:46:39;6.88;;;5.20;;
49183;SDS011;35021;49.214;12.270;2023-08-21T03:49:06;6.10;;;5.60;;
49183;SDS011;35021;49.214;12.270;2023-08-21T03:51:33;7.65;;;5.80;;
49183;SDS011;35021;49.214;12.270;2023-08-21T03:53:59;5.72;;;5.32;;
49183;SDS011;35021;49.214;12.270;2023-08-21T03:56:27;5.50;;;5.00;;
49183;SDS011;35021;49.214;12.270;2023-08-21T03:58:53;6.07;;;5.57;;
49183;SDS011;35021;49.214;12.270;2023-08-21T04:01:20;5.55;;;5.10;;
49183;SDS011;35021;49.214;12.270;2023-08-21T04:03:47;5.50;;;5.00;;
49183;SDS011;35021;49.214;12.270;2023-08-21T04:06:14;5.85;;;5.28;;
49183;SDS011;35021;49.214;12.270;2023-08-21T04:08:41;5.50;;;5.03;;
49183;SDS011;35021;49.214;12.270;2023-08-21T04:11:08;6.15;;;5.45;;
49183;SDS011;35021;49.214;12.270;2023-08-21T04:13:35;6.18;;;5.68;;
49183;SDS011;35021;49.214;12.270;2023-08-21T04:16:02;7.43;;;5.43;;
49183;SDS011;35021;49.214;12.270;2023-08-21T04:18:29;5.93;;;5.38;;
49183;SDS011;35021;49.214;12.270;2023-08-21T04:21:07;6.40;;;5.72;;
49183;SDS011;35021;49.214;12.270;2023-08-21T04:23:35;6.15;;;5.63;;
49183;SDS011;35021;49.214;12.270;2023-08-21T04:26:02;5.97;;;5.43;;
49183;SDS011;35021;49.214;12.270;2023-08-21T04:28:30;6.05;;;5.50;;
49183;SDS011;35021;49.214;12.270;2023-08-21T04:30:58;5.75;;;5.32;;
49183;SDS011;35021;49.214;12.270;2023-08-21T04:33:25;6.68;;;5.70;;
49183;SDS011;35021;49.214;12.270;2023-08-21T04:35:54;5.95;;;5.45;;
49183;SDS011;35021;49.214;12.270;2023-08-21T04:38:21;5.90;;;5.30;;
49183;SDS011;35021;49.214;12.270;2023-08-21T04:40:47;5.97;;;5.47;;
49183;SDS011;35021;49.214;12.270;2023-08-21T04:43:14;6.05;;;5.45;;
49183;SDS011;35021;49.214;12.270;2023-08-21T04:45:51;5.57;;;5.13;;
49183;SDS011;35021;49.214;12.270;2023-08-21T04:48:21;5.75;;;5.25;;
49183;SDS011;35021;49.214;12.270;2023-08-21T04:50:48;7.07;;;5.13;;
49183;SDS011;35021;49.214;12.270;2023-08-21T04:53:15;5.57;;;5.07;;
49183;SDS011;35021;49.214;12.270;2023-08-21T04:55:42;5.68;;;5.18;;
49183;SDS011;35021;49.214;12.270;2023-08-21T04:58:09;6.05;;;5.45;;
49183;SDS011;35021;49.214;12.270;2023-08-21T05:00:36;5.40;;;4.95;;
49183;SDS011;35021;49.214;12.270;2023-08-21T05:03:05;5.50;;;5.00;;
49183;SDS011;35021;49.214;12.270;2023-08-21T05:05:32;5.35;;;4.85;;
49183;SDS011;35021;49.214;12.270;2023-08-21T05:07:59;5.75;;;5.25;;
49183;SDS011;35021;49.214;12.270;2023-08-21T05:10:26;5.82;;;5.25;;
49183;SDS011;35021;49.214;12.270;2023-08-21T05:12:52;6.10;;;5.60;;
49183;SDS011;35021;49.214;12.270;2023-08-21T05:15:19;6.43;;;5.75;;
49183;SDS011;35021;49.214;12.270;2023-08-21T05:17:46;5.55;;;5.05;;
49183;SDS011;35021;49.214;12.270;2023-08-21T05:20:13;6.07;;;5.57;;
49183;SDS011;35021;49.214;12.270;2023-08-21T05:22:41;6.03;;;5.53;;
49183;SDS011;35021;49.214;12.270;2023-08-21T05:25:08;6.55;;;5.75;;
49183;SDS011;35021;49.214;12.270;2023-08-21T05:27:36;6.15;;;5.63;;
49183;SDS011;35021;49.214;12.270;2023-08-21T05:30:03;6.00;;;5.43;;
49183;SDS011;35021;49.214;12.270;2023-08-21T05:32:31;5.30;;;4.90;;
49183;SDS011;35021;49.214;12.270;2023-08-21T05:34:58;6.07;;;5.57;;
49183;SDS011;35021;49.214;12.270;2023-08-21T05:37:25;5.95;;;5.35;;
49183;SDS011;35021;49.214;12.270;2023-08-21T05:39:53;5.95;;;5.35;;
49183;SDS011;35021;49.214;12.270;2023-08-21T05:42:20;6.22;;;5.72;;
49183;SDS011;35021;49.214;12.270;2023-08-21T05:44:47;5.93;;;5.32;;
49183;SDS011;35021;49.214;12.270;2023-08-21T05:47:14;6.03;;;5.47;;
49183;SDS011;35021;49.214;12.270;2023-08-21T05:49:40;5.85;;;5.25;;
49183;SDS011;35021;49.214;12.270;2023-08-21T05:52:08;6.00;;;5.40;;
49183;SDS011;35021;49.214;12.270;2023-08-21T05:54:35;5.97;;;5.38;;
49183;SDS011;35021;49.214;12.270;2023-08-21T05:57:02;5.95;;;5.35;;
49183;SDS011;35021;49.214;12.270;2023-08-21T05:59:30;6.13;;;5.53;;
49183;SDS011;35021;49.214;12.270;2023-08-21T06:01:58;5.57;;;5.07;;
49183;SDS011;35021;49.214;12.270;2023-08-21T06:04:25;6.22;;;5.72;;
49183;SDS011;35021;49.214;12.270;2023-08-21T06:06:54;6.00;;;5.28;;
49183;SDS011;35021;49.214;12.270;2023-08-21T06:09:22;6.15;;;5.65;;
49183;SDS011;35021;49.214;12.270;2023-08-21T06:11:48;6.25;;;5.70;;
49183;SDS011;35021;49.214;12.270;2023-08-21T06:14:15;6.38;;;5.85;;
49183;SDS011;35021;49.214;12.270;2023-08-21T06:16:42;6.32;;;5.72;;
49183;SDS011;35021;49.214;12.270;2023-08-21T06:19:11;6.13;;;5.53;;
49183;SDS011;35021;49.214;12.270;2023-08-21T06:21:38;6.68;;;5.82;;
49183;SDS011;35021;49.214;12.270;2023-08-21T06:24:05;7.28;;;6.55;;
49183;SDS011;35021;49.214;12.270;2023-08-21T06:26:32;6.30;;;5.80;;
49183;SDS011;35021;49.214;12.270;2023-08-21T06:28:59;8.38;;;6.72;;
49183;SDS011;35021;49.214;12.270;2023-08-21T06:31:26;6.82;;;6.20;;
49183;SDS011;35021;49.214;12.270;2023-08-21T06:33:53;7.28;;;6.57;;
49183;SDS011;35021;49.214;12.270;2023-08-21T06:36:20;7.03;;;6.43;;
49183;SDS011;35021;49.214;12.270;2023-08-21T06:38:47;7.68;;;6.97;;
49183;SDS011;35021;49.214;12.270;2023-08-21T06:41:14;7.18;;;6.47;;
49183;SDS011;35021;49.214;12.270;2023-08-21T06:43:40;7.50;;;6.80;;
49183;SDS011;35021;49.214;12.270;2023-08-21T06:46:11;7.50;;;6.90;;
49183;SDS011;35021;49.214;12.270;2023-08-21T06:48:39;7.38;;;6.78;;
49183;SDS011;35021;49.214;12.270;2023-08-21T06:51:09;7.88;;;7.28;;
49183;SDS011;35021;49.214;12.270;2023-08-21T06:53:39;7.40;;;6.80;;
49183;SDS011;35021;49.214;12.270;2023-08-21T06:56:06;8.43;;;7.60;;
49183;SDS011;35021;49.214;12.270;2023-08-21T06:58:33;6.75;;;6.15;;
49183;SDS011;35021;49.214;12.270;2023-08-21T07:01:00;7.80;;;7.03;;
49183;SDS011;35021;49.214;12.270;2023-08-21T07:03:28;8.18;;;7.13;;
49183;SDS011;35021;49.214;12.270;2023-08-21T07:05:55;7.60;;;6.90;;
49183;SDS011;35021;49.214;12.270;2023-08-21T07:08:23;7.57;;;6.97;;
49183;SDS011;35021;49.214;12.270;2023-08-21T07:10:51;7.65;;;6.95;;
49183;SDS011;35021;49.214;12.270;2023-08-21T07:13:18;8.32;;;7.57;;
49183;SDS011;35021;49.214;12.270;2023-08-21T07:15:46;8.35;;;7.63;;
49183;SDS011;35021;49.214;12.270;2023-08-21T07:18:13;8.77;;;7.88;;
49183;SDS011;35021;49.214;12.270;2023-08-21T07:20:41;7.45;;;6.85;;
49183;SDS011;35021;49.214;12.270;2023-08-21T07:23:08;7.47;;;6.88;;
49183;SDS011;35021;49.214;12.270;2023-08-21T07:25:34;9.30;;;8.32;;
49183;SDS011;35021;49.214;12.270;2023-08-21T07:28:01;8.18;;;7.43;;
49183;SDS011;35021;49.214;12.270;2023-08-21T07:30:29;8.30;;;7.55;;
49183;SDS011;35021;49.214;12.270;2023-08-21T07:32:56;7.85;;;6.97;;
49183;SDS011;35021;49.214;12.270;2023-08-21T07:35:23;8.57;;;7.70;;
49183;SDS011;35021;49.214;12.270;2023-08-21T07:37:49;7.88;;;7.20;;
49183;SDS011;35021;49.214;12.270;2023-08-21T07:40:18;7.72;;;7.03;;
49183;SDS011;35021;49.214;12.270;2023-08-21T07:42:45;8.13;;;7.32;;
49183;SDS011;35021;49.214;12.270;2023-08-21T07:45:12;7.60;;;6.90;;
49183;SDS011;35021;49.214;12.270;2023-08-21T07:47:40;8.05;;;7.05;;
49183;SDS011;35021;49.214;12.270;2023-08-21T07:50:07;8.82;;;7.93;;
49183;SDS011;35021;49.214;12.270;2023-08-21T07:52:34;8.13;;;7.32;;
49183;SDS011;35021;49.214;12.270;2023-08-21T07:55:02;8.45;;;7.75;;
49183;SDS011;35021;49.214;12.270;2023-08-21T07:57:30;8.85;;;8.05;;
49183;SDS011;35021;49.214;12.270;2023-08-21T07:59:57;7.97;;;7.28;;
49183;SDS011;35021;49.214;12.270;2023-08-21T08:02:24;8.43;;;7.72;;
49183;SDS011;35021;49.214;12.270;2023-08-21T08:04:51;8.40;;;7.60;;
49183;SDS011;35021;49.214;12.270;2023-08-21T08:07:18;8.57;;;7.78;;
49183;SDS011;35021;49.214;12.270;2023-08-21T08:09:45;8.45;;;7.75;;
49183;SDS011;35021;49.214;12.270;2023-08-21T08:12:13;8.70;;;7.70;;
49183;SDS011;35021;49.214;12.270;2023-08-21T08:14:40;8.15;;;7.45;;
49183;SDS011;35021;49.214;12.270;2023-08-21T08:17:07;8.57;;;7.78;;
49183;SDS011;35021;49.214;12.270;2023-08-21T08:19:34;9.15;;;8.35;;
49183;SDS011;35021;49.214;12.270;2023-08-21T08:22:01;8.35;;;7.55;;
49183;SDS011;35021;49.214;12.270;2023-08-21T08:24:29;9.25;;;8.45;;
49183;SDS011;35021;49.214;12.270;2023-08-21T08:26:56;8.27;;;7.57;;
49183;SDS011;35021;49.214;12.270;2023-08-21T08:29:26;8.05;;;7.35;;
49183;SDS011;35021;49.214;12.270;2023-08-21T08:31:53;8.48;;;7.70;;
49183;SDS011;35021;49.214;12.270;2023-08-21T08:34:20;7.82;;;7.13;;
49183;SDS011;35021;49.214;12.270;2023-08-21T08:36:47;8.40;;;7.70;;
49183;SDS011;35021;49.214;12.270;2023-08-21T08:39:14;8.75;;;7.85;;
49183;SDS011;35021;49.214;12.270;2023-08-21T08:41:48;8.13;;;7.40;;
49183;SDS011;35021;49.214;12.270;2023-08-21T08:44:20;8.75;;;7.50;;
49183;SDS011;35021;49.214;12.270;2023-08-21T08:46:48;8.23;;;7.50;;
49183;SDS011;35021;49.214;12.270;2023-08-21T08:49:16;7.97;;;7.20;;
49183;SDS011;35021;49.214;12.270;2023-08-21T08:51:43;9.00;;;8.13;;
49183;SDS011;35021;49.214;12.270;2023-08-21T08:54:10;7.97;;;7.28;;
49183;SDS011;35021;49.214;12.270;2023-08-21T08:56:39;8.60;;;7.82;;
49183;SDS011;35021;49.214;12.270;2023-08-21T08:59:07;8.25;;;7.50;;
49183;SDS011;35021;49.214;12.270;2023-08-21T09:01:35;7.88;;;7.18;;
49183;SDS011;35021;49.214;12.270;2023-08-21T09:04:02;8.30;;;7.63;;
49183;SDS011;35021;49.214;12.270;2023-08-21T09:06:29;7.80;;;7.20;;
49183;SDS011;35021;49.214;12.270;2023-08-21T09:08:58;7.75;;;7.15;;
49183;SDS011;35021;49.214;12.270;2023-08-21T09:11:26;8.13;;;7.43;;
49183;SDS011;35021;49.214;12.270;2023-08-21T09:13:53;8.13;;;7.32;;
49183;SDS011;35021;49.214;12.270;2023-08-21T09:16:21;7.82;;;7.13;;
49183;SDS011;35021;49.214;12.270;2023-08-21T09:18:54;7.90;;;7.20;;
49183;SDS011;35021;49.214;12.270;2023-08-21T09:21:25;8.00;;;7.30;;
49183;SDS011;35021;49.214;12.270;2023-08-21T09:23:58;8.10;;;7.40;;
49183;SDS011;35021;49.214;12.270;2023-08-21T09:26:31;8.20;;;7.50;;
49183;SDS011;35021;49.214;12.270;2023-08-21T09:29:02;8.57;;;7.90;;
49183;SDS011;35021;49.214;12.270;2023-08-21T09:31:31;8.18;;;7.40;;
49183;SDS011;35021;49.214;12.270;2023-08-21T09:34:01;7.72;;;7.13;;
49183;SDS011;35021;49.214;12.270;2023-08-21T09:36:32;8.18;;;7.47;;
49183;SDS011;35021;49.214;12.270;2023-08-21T09:39:00;7.90;;;7.30;;
49183;SDS011;35021;49.214;12.270;2023-08-21T09:41:28;8.18;;;7.38;;
49183;SDS011;35021;49.214;12.270;2023-08-21T09:43:58;7.97;;;7.38;;
49183;SDS011;35021;49.214;12.270;2023-08-21T09:46:26;7.68;;;6.97;;
49183;SDS011;35021;49.214;12.270;2023-08-21T09:48:55;7.45;;;6.75;;
49183;SDS011;35021;49.214;12.270;2023-08-21T09:51:22;6.95;;;6.38;;
49183;SDS011;35021;49.214;12.270;2023-08-21T09:53:52;7.32;;;6.72;;
49183;SDS011;35021;49.214;12.270;2023-08-21T09:56:21;7.28;;;6.68;;
49183;SDS011;35021;49.214;12.270;2023-08-21T09:58:48;7.47;;;6.88;;
49183;SDS011;35021;49.214;12.270;2023-08-21T10:01:16;7.30;;;6.60;;
49183;SDS011;35021;49.214;12.270;2023-08-21T10:03:47;7.13;;;6.53;;
49183;SDS011;35021;49.214;12.270;2023-08-21T10:06:16;7.25;;;6.65;;
49183;SDS011;35021;49.214;12.270;2023-08-21T10:08:48;6.50;;;6.00;;
49183;SDS011;35021;49.214;12.270;2023-08-21T10:11:20;6.70;;;6.10;;
49183;SDS011;35021;49.214;12.270;2023-08-21T10:13:51;6.70;;;6.20;;
49183;SDS011;35021;49.214;12.270;2023-08-21T10:16:22;6.72;;;6.15;;
49183;SDS011;35021;49.214;12.270;2023-08-21T10:18:51;6.75;;;6.15;;
49183;SDS011;35021;49.214;12.270;2023-08-21T10:21:20;6.72;;;6.22;;
49183;SDS011;35021;49.214;12.270;2023-08-21T10:23:50;6.55;;;6.03;;
49183;SDS011;35021;49.214;12.270;2023-08-21T10:26:21;6.47;;;5.88;;
49183;SDS011;35021;49.214;12.270;2023-08-21T10:28:49;6.53;;;5.93;;
49183;SDS011;35021;49.214;12.270;2023-08-21T10:34:09;6.90;;;6.22;;
49183;SDS011;35021;49.214;12.270;2023-08-21T10:39:05;6.55;;;5.88;;
49183;SDS011;35021;49.214;12.270;2023-08-21T10:41:38;6.60;;;5.95;;
49183;SDS011;35021;49.214;12.270;2023-08-21T10:44:05;6.40;;;5.68;;
49183;SDS011;35021;49.214;12.270;2023-08-21T10:46:51;5.78;;;5.28;;
49183;SDS011;35021;49.214;12.270;2023-08-21T10:49:19;6.07;;;5.57;;
49183;SDS011;35021;49.214;12.270;2023-08-21T10:51:46;6.00;;;5.50;;
49183;SDS011;35021;49.214;12.270;2023-08-21T10:54:13;5.72;;;5.22;;
49183;SDS011;35021;49.214;12.270;2023-08-21T10:56:40;5.95;;;5.45;;
49183;SDS011;35021;49.214;12.270;2023-08-21T10:59:07;6.22;;;5.70;;
49183;SDS011;35021;49.214;12.270;2023-08-21T11:01:43;5.75;;;5.18;;
49183;SDS011;35021;49.214;12.270;2023-08-21T11:04:11;5.70;;;5.15;;
49183;SDS011;35021;49.214;12.270;2023-08-21T11:06:38;5.85;;;5.35;;
49183;SDS011;35021;49.214;12.270;2023-08-21T11:09:12;6.93;;;5.68;;
49183;SDS011;35021;49.214;12.270;2023-08-21T11:11:39;5.97;;;5.47;;
49183;SDS011;35021;49.214;12.270;2023-08-21T11:14:06;6.53;;;5.93;;
49183;SDS011;35021;49.214;12.270;2023-08-21T11:16:33;6.03;;;5.43;;
49183;SDS011;35021;49.214;12.270;2023-08-21T11:19:03;6.05;;;5.55;;
49183;SDS011;35021;49.214;12.270;2023-08-21T11:21:31;6.13;;;5.63;;
49183;SDS011;35021;49.214;12.270;2023-08-21T11:23:58;6.05;;;5.50;;
49183;SDS011;35021;49.214;12.270;2023-08-21T11:26:25;5.68;;;4.95;;
49183;SDS011;35021;49.214;12.270;2023-08-21T11:28:52;5.75;;;5.25;;
49183;SDS011;35021;49.214;12.270;2023-08-21T11:31:21;6.35;;;5.75;;
49183;SDS011;35021;49.214;12.270;2023-08-21T11:33:52;6.32;;;5.72;;
49183;SDS011;35021;49.214;12.270;2023-08-21T11:36:19;5.53;;;5.07;;
49183;SDS011;35021;49.214;12.270;2023-08-21T11:38:59;6.05;;;5.53;;
49183;SDS011;35021;49.214;12.270;2023-08-21T11:41:27;5.78;;;5.28;;
49183;SDS011;35021;49.214;12.270;2023-08-21T11:44:01;6.40;;;5.85;;
49183;SDS011;35021;49.214;12.270;2023-08-21T11:46:30;6.00;;;5.50;;
49183;SDS011;35021;49.214;12.270;2023-08-21T11:48:57;5.72;;;5.28;;
49183;SDS011;35021;49.214;12.270;2023-08-21T11:51:26;5.85;;;5.35;;
49183;SDS011;35021;49.214;12.270;2023-08-21T11:53:53;6.15;;;5.32;;
49183;SDS011;35021;49.214;12.270;2023-08-21T11:56:20;5.82;;;5.30;;
49183;SDS011;35021;49.214;12.270;2023-08-21T11:58:50;5.45;;;5.05;;
49183;SDS011;35021;49.214;12.270;2023-08-21T12:01:20;5.70;;;5.20;;
49183;SDS011;35021;49.214;12.270;2023-08-21T12:03:48;5.30;;;4.90;;
49183;SDS011;35021;49.214;12.270;2023-08-21T12:06:22;6.55;;;5.78;;
49183;SDS011;35021;49.214;12.270;2023-08-21T12:08:50;5.85;;;5.25;;
49183;SDS011;35021;49.214;12.270;2023-08-21T12:11:17;5.20;;;4.70;;
49183;SDS011;35021;49.214;12.270;2023-08-21T12:13:44;5.72;;;5.22;;
49183;SDS011;35021;49.214;12.270;2023-08-21T12:16:11;6.07;;;5.53;;
49183;SDS011;35021;49.214;12.270;2023-08-21T12:18:38;5.47;;;5.00;;
49183;SDS011;35021;49.214;12.270;2023-08-21T12:21:04;7.07;;;5.60;;
49183;SDS011;35021;49.214;12.270;2023-08-21T12:23:34;5.70;;;5.20;;
49183;SDS011;35021;49.214;12.270;2023-08-21T12:26:01;5.88;;;4.95;;
49183;SDS011;35021;49.214;12.270;2023-08-21T12:28:28;5.68;;;5.13;;
49183;SDS011;35021;49.214;12.270;2023-08-21T12:30:55;6.85;;;5.82;;
49183;SDS011;35021;49.214;12.270;2023-08-21T12:33:22;6.15;;;5.55;;
49183;SDS011;35021;49.214;12.270;2023-08-21T12:35:50;6.22;;;5.63;;
49183;SDS011;35021;49.214;12.270;2023-08-21T12:38:17;5.68;;;5.15;;
49183;SDS011;35021;49.214;12.270;2023-08-21T12:40:44;6.20;;;5.60;;
49183;SDS011;35021;49.214;12.270;2023-08-21T12:43:11;5.45;;;5.00;;
49183;SDS011;35021;49.214;12.270;2023-08-21T12:45:38;5.88;;;5.30;;
49183;SDS011;35021;49.214;12.270;2023-08-21T12:48:05;6.10;;;5.60;;
49183;SDS011;35021;49.214;12.270;2023-08-21T12:50:32;6.57;;;5.88;;
49183;SDS011;35021;49.214;12.270;2023-08-21T12:52:59;5.80;;;5.30;;
49183;SDS011;35021;49.214;12.270;2023-08-21T12:55:26;5.78;;;5.28;;
49183;SDS011;35021;49.214;12.270;2023-08-21T12:57:55;5.97;;;5.47;;
49183;SDS011;35021;49.214;12.270;2023-08-21T13:00:22;6.05;;;5.05;;
49183;SDS011;35021;49.214;12.270;2023-08-21T13:02:49;6.13;;;5.53;;
49183;SDS011;35021;49.214;12.270;2023-08-21T13:05:16;6.75;;;6.15;;
49183;SDS011;35021;49.214;12.270;2023-08-21T13:07:43;6.38;;;5.75;;
49183;SDS011;35021;49.214;12.270;2023-08-21T13:10:10;6.15;;;5.55;;
49183;SDS011;35021;49.214;12.270;2023-08-21T13:12:37;5.75;;;5.25;;
49183;SDS011;35021;49.214;12.270;2023-08-21T13:15:04;6.10;;;5.50;;
49183;SDS011;35021;49.214;12.270;2023-08-21T13:17:34;6.30;;;5.68;;
49183;SDS011;35021;49.214;12.270;2023-08-21T13:20:01;5.90;;;5.40;;
49183;SDS011;35021;49.214;12.270;2023-08-21T13:22:46;6.30;;;5.57;;
49183;SDS011;35021;49.214;12.270;2023-08-21T13:25:15;5.63;;;5.13;;
49183;SDS011;35021;49.214;12.270;2023-08-21T13:27:42;5.93;;;5.32;;
49183;SDS011;35021;49.214;12.270;2023-08-21T13:30:10;6.25;;;5.53;;
49183;SDS011;35021;49.214;12.270;2023-08-21T13:32:38;5.95;;;5.35;;
49183;SDS011;35021;49.214;12.270;2023-08-21T13:35:05;5.40;;;4.90;;
49183;SDS011;35021;49.214;12.270;2023-08-21T13:37:38;6.50;;;5.90;;
49183;SDS011;35021;49.214;12.270;2023-08-21T13:40:06;6.78;;;5.53;;
49183;SDS011;35021;49.214;12.270;2023-08-21T13:42:43;6.32;;;5.32;;
49183;SDS011;35021;49.214;12.270;2023-08-21T13:45:12;5.35;;;4.85;;
49183;SDS011;35021;49.214;12.270;2023-08-21T13:47:41;6.35;;;5.78;;
49183;SDS011;35021;49.214;12.270;2023-08-21T13:50:10;5.68;;;5.18;;
49183;SDS011;35021;49.214;12.270;2023-08-21T13:52:37;8.90;;;5.70;;
49183;SDS011;35021;49.214;12.270;2023-08-21T13:55:07;6.03;;;5.43;;
49183;SDS011;35021;49.214;12.270;2023-08-21T13:57:36;5.45;;;5.00;;
49183;SDS011;35021;49.214;12.270;2023-08-21T14:00:04;6.00;;;5.40;;
49183;SDS011;35021;49.214;12.270;2023-08-21T14:02:38;5.60;;;5.00;;
49183;SDS011;35021;49.214;12.270;2023-08-21T14:05:07;5.50;;;5.00;;
49183;SDS011;35021;49.214;12.270;2023-08-21T14:07:36;5.78;;;5.10;;
49183;SDS011;35021;49.214;12.270;2023-08-21T14:10:04;6.05;;;5.53;;
49183;SDS011;35021;49.214;12.270;2023-08-21T14:12:32;5.68;;;5.18;;
49183;SDS011;35021;49.214;12.270;2023-08-21T14:14:59;6.15;;;5.53;;
49183;SDS011;35021;49.214;12.270;2023-08-21T14:17:27;5.20;;;4.72;;
49183;SDS011;35021;49.214;12.270;2023-08-21T14:19:54;8.15;;;5.07;;
49183;SDS011;35021;49.214;12.270;2023-08-21T14:22:21;6.60;;;4.78;;
49183;SDS011;35021;49.214;12.270;2023-08-21T14:24:48;5.70;;;5.10;;
49183;SDS011;35021;49.214;12.270;2023-08-21T14:27:15;5.60;;;5.10;;
49183;SDS011;35021;49.214;12.270;2023-08-21T14:29:42;6.18;;;5.65;;
49183;SDS011;35021;49.214;12.270;2023-08-21T14:32:12;5.63;;;5.13;;
49183;SDS011;35021;49.214;12.270;2023-08-21T14:34:39;6.13;;;5.53;;
49183;SDS011;35021;49.214;12.270;2023-08-21T14:37:06;5.25;;;4.75;;
49183;SDS011;35021;49.214;12.270;2023-08-21T14:39:33;5.85;;;4.93;;
49183;SDS011;35021;49.214;12.270;2023-08-21T14:42:00;7.60;;;5.65;;
49183;SDS011;35021;49.214;12.270;2023-08-21T14:44:28;8.77;;;6.07;;